sensor_id;sensor_type;location;lat;lon;timestamp;temperature;humidity
18103;DHT22;9178;51.120;6.192;2023-11-19T00:01:35;11.80;99.90
18103;DHT22;9178;51.120;6.192;2023-11-19T00:04:05;11.80;99.90
18103;DHT22;9178;51.120;6.192;2023-11-19T00:06:33;11.80;99.90
18103;DHT22;9178;51.120;6.192;2023-11-19T00:09:01;11.80;99.90
18103;DHT22;9178;51.120;6.192;2023-11-19T00:11:29;11.80;99.90
18103;DHT22;9178;51.120;6.192;2023-11-19T00:13:56;11.80;99.90
18103;DHT22;9178;51.120;6.192;2023-11-19T00:16:23;11.90;99.90
18103;DHT22;9178;51.120;6.192;2023-11-19T00:18:53;11.90;99.90
18103;DHT22;9178;51.120;6.192;2023-11-19T00:21:21;11.90;99.90
18103;DHT22;9178;51.120;6.192;2023-11-19T00:23:48;11.90;99.90
18103;DHT22;9178;51.120;6.192;2023-11-19T00:26:15;11.90;99.90
18103;DHT22;9178;51.120;6.192;2023-11-19T00:28:42;12.00;99.90
18103;DHT22;9178;51.120;6.192;2023-11-19T00:31:09;12.00;99.90
18103;DHT22;9178;51.120;6.192;2023-11-19T00:33:36;12.00;99.90
18103;DHT22;9178;51.120;6.192;2023-11-19T00:36:04;12.00;99.90
18103;DHT22;9178;51.120;6.192;2023-11-19T00:38:32;12.10;99.90
18103;DHT22;9178;51.120;6.192;2023-11-19T00:41:00;12.10;99.90
18103;DHT22;9178;51.120;6.192;2023-11-19T00:43:28;12.10;99.90
18103;DHT22;9178;51.120;6.192;2023-11-19T00:45:54;12.10;99.90
18103;DHT22;9178;51.120;6.192;2023-11-19T00:48:22;12.10;99.90
18103;DHT22;9178;51.120;6.192;2023-11-19T00:50:49;12.10;99.90
18103;DHT22;9178;51.120;6.192;2023-11-19T00:53:19;12.10;99.90
18103;DHT22;9178;51.120;6.192;2023-11-19T00:55:53;12.10;99.90
18103;DHT22;9178;51.120;6.192;2023-11-19T00:58:20;12.10;99.90
18103;DHT22;9178;51.120;6.192;2023-11-19T01:00:47;12.10;99.90
18103;DHT22;9178;51.120;6.192;2023-11-19T01:03:14;12.10;99.90
18103;DHT22;9178;51.120;6.192;2023-11-19T01:05:42;12.10;99.90
18103;DHT22;9178;51.120;6.192;2023-11-19T01:08:10;12.20;99.90
18103;DHT22;9178;51.120;6.192;2023-11-19T01:10:43;12.20;99.90
18103;DHT22;9178;51.120;6.192;2023-11-19T01:13:12;12.20;99.90
18103;DHT22;9178;51.120;6.192;2023-11-19T01:15:42;12.20;99.90
18103;DHT22;9178;51.120;6.192;2023-11-19T01:18:09;12.20;99.90
18103;DHT22;9178;51.120;6.192;2023-11-19T01:20:39;12.20;99.90
18103;DHT22;9178;51.120;6.192;2023-11-19T01:23:06;12.30;99.90
18103;DHT22;9178;51.120;6.192;2023-11-19T01:25:33;12.30;99.90
18103;DHT22;9178;51.120;6.192;2023-11-19T01:28:01;12.30;99.90
18103;DHT22;9178;51.120;6.192;2023-11-19T01:30:29;12.30;99.90
18103;DHT22;9178;51.120;6.192;2023-11-19T01:33:02;12.30;99.90
18103;DHT22;9178;51.120;6.192;2023-11-19T01:35:29;12.30;99.90
18103;DHT22;9178;51.120;6.192;2023-11-19T01:37:56;12.30;99.90
18103;DHT22;9178;51.120;6.192;2023-11-19T01:40:23;12.30;99.90
18103;DHT22;9178;51.120;6.192;2023-11-19T01:42:50;12.30;99.90
18103;DHT22;9178;51.120;6.192;2023-11-19T01:45:26;12.40;99.90
18103;DHT22;9178;51.120;6.192;2023-11-19T01:47:56;12.40;99.90
18103;DHT22;9178;51.120;6.192;2023-11-19T01:50:32;12.40;99.90
18103;DHT22;9178;51.120;6.192;2023-11-19T01:53:00;12.40;99.90
18103;DHT22;9178;51.120;6.192;2023-11-19T01:55:30;12.40;99.90
18103;DHT22;9178;51.120;6.192;2023-11-19T01:57:59;12.50;99.90
18103;DHT22;9178;51.120;6.192;2023-11-19T02:00:28;12.50;99.90
18103;DHT22;9178;51.120;6.192;2023-11-19T02:02:57;12.50;99.90
18103;DHT22;9178;51.120;6.192;2023-11-19T02:05:24;12.50;99.90
18103;DHT22;9178;51.120;6.192;2023-11-19T02:07:52;12.60;99.90
18103;DHT22;9178;51.120;6.192;2023-11-19T02:10:19;12.50;99.90
18103;DHT22;9178;51.120;6.192;2023-11-19T02:12:46;12.50;99.90
18103;DHT22;9178;51.120;6.192;2023-11-19T02:15:14;12.60;99.90
18103;DHT22;9178;51.120;6.192;2023-11-19T02:17:44;12.50;99.90
18103;DHT22;9178;51.120;6.192;2023-11-19T02:20:13;12.60;99.90
18103;DHT22;9178;51.120;6.192;2023-11-19T02:22:41;12.50;99.90
18103;DHT22;9178;51.120;6.192;2023-11-19T02:25:15;12.50;99.90
18103;DHT22;9178;51.120;6.192;2023-11-19T02:27:54;12.50;99.90
18103;DHT22;9178;51.120;6.192;2023-11-19T02:30:22;12.50;99.90
18103;DHT22;9178;51.120;6.192;2023-11-19T02:32:52;12.50;99.90
18103;DHT22;9178;51.120;6.192;2023-11-19T02:35:20;12.50;99.90
18103;DHT22;9178;51.120;6.192;2023-11-19T02:37:54;12.50;99.90
18103;DHT22;9178;51.120;6.192;2023-11-19T02:40:26;12.50;99.90
18103;DHT22;9178;51.120;6.192;2023-11-19T02:42:58;12.50;99.90
18103;DHT22;9178;51.120;6.192;2023-11-19T02:45:25;12.50;99.90
18103;DHT22;9178;51.120;6.192;2023-11-19T02:48:03;12.50;99.90
18103;DHT22;9178;51.120;6.192;2023-11-19T02:50:35;12.50;99.90
18103;DHT22;9178;51.120;6.192;2023-11-19T02:53:06;12.50;99.90
18103;DHT22;9178;51.120;6.192;2023-11-19T02:55:35;12.50;99.90
18103;DHT22;9178;51.120;6.192;2023-11-19T02:58:07;12.50;99.90
18103;DHT22;9178;51.120;6.192;2023-11-19T03:00:45;12.50;99.90
18103;DHT22;9178;51.120;6.192;2023-11-19T03:03:17;12.50;99.90
18103;DHT22;9178;51.120;6.192;2023-11-19T03:05:46;12.50;99.90
18103;DHT22;9178;51.120;6.192;2023-11-19T03:08:14;12.50;99.90
18103;DHT22;9178;51.120;6.192;2023-11-19T03:10:42;12.50;99.90
18103;DHT22;9178;51.120;6.192;2023-11-19T03:13:26;12.60;99.90
18103;DHT22;9178;51.120;6.192;2023-11-19T03:15:53;12.50;99.90
18103;DHT22;9178;51.120;6.192;2023-11-19T03:18:21;12.50;99.90
18103;DHT22;9178;51.120;6.192;2023-11-19T03:20:51;12.50;99.90
18103;DHT22;9178;51.120;6.192;2023-11-19T03:23:20;12.50;99.90
18103;DHT22;9178;51.120;6.192;2023-11-19T03:25:48;12.50;99.90
18103;DHT22;9178;51.120;6.192;2023-11-19T03:28:24;12.50;99.90
18103;DHT22;9178;51.120;6.192;2023-11-19T03:30:56;12.50;99.90
18103;DHT22;9178;51.120;6.192;2023-11-19T03:33:23;12.50;99.90
18103;DHT22;9178;51.120;6.192;2023-11-19T03:35:54;12.50;99.90
18103;DHT22;9178;51.120;6.192;2023-11-19T03:38:22;12.40;99.90
18103;DHT22;9178;51.120;6.192;2023-11-19T03:40:51;12.40;99.90
18103;DHT22;9178;51.120;6.192;2023-11-19T03:43:22;12.30;99.90
18103;DHT22;9178;51.120;6.192;2023-11-19T03:45:57;12.30;99.90
18103;DHT22;9178;51.120;6.192;2023-11-19T03:48:25;12.30;99.90
18103;DHT22;9178;51.120;6.192;2023-11-19T03:50:51;12.20;99.90
18103;DHT22;9178;51.120;6.192;2023-11-19T03:53:19;12.10;99.90
18103;DHT22;9178;51.120;6.192;2023-11-19T03:55:46;12.10;99.90
18103;DHT22;9178;51.120;6.192;2023-11-19T03:58:13;12.00;99.90
18103;DHT22;9178;51.120;6.192;2023-11-19T04:00:41;12.00;99.90
18103;DHT22;9178;51.120;6.192;2023-11-19T04:03:08;11.90;99.90
18103;DHT22;9178;51.120;6.192;2023-11-19T04:05:35;11.80;99.90
18103;DHT22;9178;51.120;6.192;2023-11-19T04:08:03;11.80;99.90
18103;DHT22;9178;51.120;6.192;2023-11-19T04:10:31;11.80;99.90
18103;DHT22;9178;51.120;6.192;2023-11-19T04:12:58;11.80;99.90
18103;DHT22;9178;51.120;6.192;2023-11-19T04:15:25;11.80;99.90
18103;DHT22;9178;51.120;6.192;2023-11-19T04:17:57;11.80;99.90
18103;DHT22;9178;51.120;6.192;2023-11-19T04:20:24;11.80;99.90
18103;DHT22;9178;51.120;6.192;2023-11-19T04:22:59;11.80;99.90
18103;DHT22;9178;51.120;6.192;2023-11-19T04:25:26;11.80;99.90
18103;DHT22;9178;51.120;6.192;2023-11-19T04:28:01;11.90;99.90
18103;DHT22;9178;51.120;6.192;2023-11-19T04:30:44;11.90;99.90
18103;DHT22;9178;51.120;6.192;2023-11-19T04:33:12;11.90;99.90
18103;DHT22;9178;51.120;6.192;2023-11-19T04:35:40;11.90;99.90
18103;DHT22;9178;51.120;6.192;2023-11-19T04:38:07;11.90;99.90
18103;DHT22;9178;51.120;6.192;2023-11-19T04:40:34;11.90;99.90
18103;DHT22;9178;51.120;6.192;2023-11-19T04:43:01;11.90;99.90
18103;DHT22;9178;51.120;6.192;2023-11-19T04:45:31;11.90;99.90
18103;DHT22;9178;51.120;6.192;2023-11-19T04:47:58;11.90;99.90
18103;DHT22;9178;51.120;6.192;2023-11-19T04:50:27;11.90;99.90
18103;DHT22;9178;51.120;6.192;2023-11-19T04:52:54;11.90;99.90
18103;DHT22;9178;51.120;6.192;2023-11-19T04:55:21;11.90;99.90
18103;DHT22;9178;51.120;6.192;2023-11-19T04:57:48;11.80;99.90
18103;DHT22;9178;51.120;6.192;2023-11-19T05:00:15;11.80;99.90
18103;DHT22;9178;51.120;6.192;2023-11-19T05:02:42;11.70;99.90
18103;DHT22;9178;51.120;6.192;2023-11-19T05:05:09;11.70;99.90
18103;DHT22;9178;51.120;6.192;2023-11-19T05:07:38;11.70;99.90
18103;DHT22;9178;51.120;6.192;2023-11-19T05:10:06;11.70;99.90
18103;DHT22;9178;51.120;6.192;2023-11-19T05:12:33;11.70;99.90
18103;DHT22;9178;51.120;6.192;2023-11-19T05:15:02;11.70;99.90
18103;DHT22;9178;51.120;6.192;2023-11-19T05:17:29;11.70;99.90
18103;DHT22;9178;51.120;6.192;2023-11-19T05:19:57;11.80;99.90
18103;DHT22;9178;51.120;6.192;2023-11-19T05:22:24;11.70;99.90
18103;DHT22;9178;51.120;6.192;2023-11-19T05:24:55;11.80;99.90
18103;DHT22;9178;51.120;6.192;2023-11-19T05:27:25;11.80;99.90
18103;DHT22;9178;51.120;6.192;2023-11-19T05:29:52;11.80;99.90
18103;DHT22;9178;51.120;6.192;2023-11-19T05:32:21;11.80;99.90
18103;DHT22;9178;51.120;6.192;2023-11-19T05:34:48;11.80;99.90
18103;DHT22;9178;51.120;6.192;2023-11-19T05:37:16;11.80;99.90
18103;DHT22;9178;51.120;6.192;2023-11-19T05:39:45;11.80;99.90
18103;DHT22;9178;51.120;6.192;2023-11-19T05:42:13;11.80;99.90
18103;DHT22;9178;51.120;6.192;2023-11-19T05:44:40;11.80;99.90
18103;DHT22;9178;51.120;6.192;2023-11-19T05:47:07;11.80;99.90
18103;DHT22;9178;51.120;6.192;2023-11-19T05:49:35;11.70;99.90
18103;DHT22;9178;51.120;6.192;2023-11-19T05:52:02;11.70;99.90
18103;DHT22;9178;51.120;6.192;2023-11-19T05:54:33;11.70;99.90
18103;DHT22;9178;51.120;6.192;2023-11-19T05:57:03;11.60;99.90
18103;DHT22;9178;51.120;6.192;2023-11-19T05:59:32;11.60;99.90
18103;DHT22;9178;51.120;6.192;2023-11-19T06:01:59;11.60;99.90
18103;DHT22;9178;51.120;6.192;2023-11-19T06:04:26;11.50;99.90
18103;DHT22;9178;51.120;6.192;2023-11-19T06:06:53;11.60;99.90
18103;DHT22;9178;51.120;6.192;2023-11-19T06:09:21;11.60;99.90
18103;DHT22;9178;51.120;6.192;2023-11-19T06:11:50;11.50;99.90
18103;DHT22;9178;51.120;6.192;2023-11-19T06:14:18;11.50;99.90
18103;DHT22;9178;51.120;6.192;2023-11-19T06:16:46;11.40;99.90
18103;DHT22;9178;51.120;6.192;2023-11-19T06:19:16;11.40;99.90
18103;DHT22;9178;51.120;6.192;2023-11-19T06:21:44;11.30;99.90
18103;DHT22;9178;51.120;6.192;2023-11-19T06:24:10;11.30;99.90
18103;DHT22;9178;51.120;6.192;2023-11-19T06:26:38;11.30;99.90
18103;DHT22;9178;51.120;6.192;2023-11-19T06:29:05;11.20;99.90
18103;DHT22;9178;51.120;6.192;2023-11-19T06:31:32;11.20;99.90
18103;DHT22;9178;51.120;6.192;2023-11-19T06:34:01;11.20;99.90
18103;DHT22;9178;51.120;6.192;2023-11-19T06:36:28;11.10;99.90
18103;DHT22;9178;51.120;6.192;2023-11-19T06:38:56;11.10;99.90
18103;DHT22;9178;51.120;6.192;2023-11-19T06:41:25;11.00;99.90
18103;DHT22;9178;51.120;6.192;2023-11-19T06:43:52;11.00;99.90
18103;DHT22;9178;51.120;6.192;2023-11-19T06:46:19;10.90;99.90
18103;DHT22;9178;51.120;6.192;2023-11-19T06:48:49;10.90;99.90
18103;DHT22;9178;51.120;6.192;2023-11-19T06:51:20;10.90;99.90
18103;DHT22;9178;51.120;6.192;2023-11-19T06:53:47;10.80;99.90
18103;DHT22;9178;51.120;6.192;2023-11-19T06:56:18;10.80;99.90
18103;DHT22;9178;51.120;6.192;2023-11-19T06:58:45;10.80;99.90
18103;DHT22;9178;51.120;6.192;2023-11-19T07:01:15;10.70;99.90
18103;DHT22;9178;51.120;6.192;2023-11-19T07:03:44;10.70;99.90
18103;DHT22;9178;51.120;6.192;2023-11-19T07:06:11;10.70;99.90
18103;DHT22;9178;51.120;6.192;2023-11-19T07:08:41;10.70;99.90
18103;DHT22;9178;51.120;6.192;2023-11-19T07:11:10;10.70;99.90
18103;DHT22;9178;51.120;6.192;2023-11-19T07:13:38;10.70;99.90
18103;DHT22;9178;51.120;6.192;2023-11-19T07:16:06;10.70;99.90
18103;DHT22;9178;51.120;6.192;2023-11-19T07:18:35;10.60;99.90
18103;DHT22;9178;51.120;6.192;2023-11-19T07:21:05;10.60;99.90
18103;DHT22;9178;51.120;6.192;2023-11-19T07:23:33;10.70;99.90
18103;DHT22;9178;51.120;6.192;2023-11-19T07:26:04;10.60;99.90
18103;DHT22;9178;51.120;6.192;2023-11-19T07:28:33;10.70;99.90
18103;DHT22;9178;51.120;6.192;2023-11-19T07:31:00;10.70;99.90
18103;DHT22;9178;51.120;6.192;2023-11-19T07:33:32;10.60;99.90
18103;DHT22;9178;51.120;6.192;2023-11-19T07:36:02;10.60;99.90
18103;DHT22;9178;51.120;6.192;2023-11-19T07:38:29;10.70;99.90
18103;DHT22;9178;51.120;6.192;2023-11-19T07:40:56;10.70;99.90
18103;DHT22;9178;51.120;6.192;2023-11-19T07:43:24;10.80;99.90
18103;DHT22;9178;51.120;6.192;2023-11-19T07:45:51;10.70;99.90
18103;DHT22;9178;51.120;6.192;2023-11-19T07:48:19;10.80;99.90
18103;DHT22;9178;51.120;6.192;2023-11-19T07:50:49;10.80;99.90
18103;DHT22;9178;51.120;6.192;2023-11-19T07:53:16;10.90;99.90
18103;DHT22;9178;51.120;6.192;2023-11-19T07:55:43;10.90;99.90
18103;DHT22;9178;51.120;6.192;2023-11-19T07:58:11;10.90;99.90
18103;DHT22;9178;51.120;6.192;2023-11-19T08:00:39;11.00;99.90
18103;DHT22;9178;51.120;6.192;2023-11-19T08:03:07;11.00;99.90
18103;DHT22;9178;51.120;6.192;2023-11-19T08:05:34;11.00;99.90
18103;DHT22;9178;51.120;6.192;2023-11-19T08:08:00;11.10;99.90
18103;DHT22;9178;51.120;6.192;2023-11-19T08:10:27;11.10;99.90
18103;DHT22;9178;51.120;6.192;2023-11-19T08:12:54;11.20;99.90
18103;DHT22;9178;51.120;6.192;2023-11-19T08:15:21;11.20;99.90
18103;DHT22;9178;51.120;6.192;2023-11-19T08:17:50;11.30;99.90
18103;DHT22;9178;51.120;6.192;2023-11-19T08:20:17;11.30;99.90
18103;DHT22;9178;51.120;6.192;2023-11-19T08:22:44;11.30;99.90
18103;DHT22;9178;51.120;6.192;2023-11-19T08:25:11;11.40;99.90
18103;DHT22;9178;51.120;6.192;2023-11-19T08:27:38;11.50;99.90
18103;DHT22;9178;51.120;6.192;2023-11-19T08:30:06;11.70;99.90
18103;DHT22;9178;51.120;6.192;2023-11-19T08:32:34;11.80;99.90
18103;DHT22;9178;51.120;6.192;2023-11-19T08:35:03;11.80;99.90
18103;DHT22;9178;51.120;6.192;2023-11-19T08:37:31;11.70;99.90
18103;DHT22;9178;51.120;6.192;2023-11-19T08:39:58;11.70;99.90
18103;DHT22;9178;51.120;6.192;2023-11-19T08:42:26;11.60;99.90
18103;DHT22;9178;51.120;6.192;2023-11-19T08:44:55;11.60;99.90
18103;DHT22;9178;51.120;6.192;2023-11-19T08:47:22;11.70;99.90
18103;DHT22;9178;51.120;6.192;2023-11-19T08:49:51;11.80;99.90
18103;DHT22;9178;51.120;6.192;2023-11-19T08:52:20;11.90;99.90
18103;DHT22;9178;51.120;6.192;2023-11-19T08:54:48;11.90;99.90
18103;DHT22;9178;51.120;6.192;2023-11-19T08:57:15;11.90;99.90
18103;DHT22;9178;51.120;6.192;2023-11-19T08:59:42;11.90;99.90
18103;DHT22;9178;51.120;6.192;2023-11-19T09:02:11;12.00;99.90
18103;DHT22;9178;51.120;6.192;2023-11-19T09:04:41;12.10;99.90
18103;DHT22;9178;51.120;6.192;2023-11-19T09:07:08;12.10;99.90
18103;DHT22;9178;51.120;6.192;2023-11-19T09:09:37;12.10;99.90
18103;DHT22;9178;51.120;6.192;2023-11-19T09:12:10;12.10;99.90
18103;DHT22;9178;51.120;6.192;2023-11-19T09:14:39;12.10;99.90
18103;DHT22;9178;51.120;6.192;2023-11-19T09:17:08;12.10;99.90
18103;DHT22;9178;51.120;6.192;2023-11-19T09:22:20;12.10;99.90
18103;DHT22;9178;51.120;6.192;2023-11-19T09:24:49;12.10;99.90
18103;DHT22;9178;51.120;6.192;2023-11-19T09:27:17;12.10;99.90
18103;DHT22;9178;51.120;6.192;2023-11-19T09:29:44;12.10;99.90
18103;DHT22;9178;51.120;6.192;2023-11-19T09:32:14;12.10;99.90
18103;DHT22;9178;51.120;6.192;2023-11-19T09:34:41;12.20;99.90
18103;DHT22;9178;51.120;6.192;2023-11-19T09:37:08;12.30;99.90
18103;DHT22;9178;51.120;6.192;2023-11-19T09:39:35;12.40;99.90
18103;DHT22;9178;51.120;6.192;2023-11-19T09:42:04;12.40;99.90
18103;DHT22;9178;51.120;6.192;2023-11-19T09:44:31;12.50;99.90
18103;DHT22;9178;51.120;6.192;2023-11-19T09:46:59;12.60;99.90
18103;DHT22;9178;51.120;6.192;2023-11-19T09:49:27;12.50;99.90
18103;DHT22;9178;51.120;6.192;2023-11-19T09:51:54;12.60;99.90
18103;DHT22;9178;51.120;6.192;2023-11-19T09:54:24;12.60;99.90
18103;DHT22;9178;51.120;6.192;2023-11-19T09:56:55;12.70;99.90
18103;DHT22;9178;51.120;6.192;2023-11-19T09:59:32;12.70;99.90
18103;DHT22;9178;51.120;6.192;2023-11-19T10:02:00;12.60;99.90
18103;DHT22;9178;51.120;6.192;2023-11-19T10:04:30;12.70;99.90
18103;DHT22;9178;51.120;6.192;2023-11-19T10:06:57;12.70;99.90
18103;DHT22;9178;51.120;6.192;2023-11-19T10:09:24;12.80;99.90
18103;DHT22;9178;51.120;6.192;2023-11-19T10:11:52;12.90;99.90
18103;DHT22;9178;51.120;6.192;2023-11-19T10:14:23;12.90;99.90
18103;DHT22;9178;51.120;6.192;2023-11-19T10:16:52;12.90;99.90
18103;DHT22;9178;51.120;6.192;2023-11-19T10:19:21;12.90;99.90
18103;DHT22;9178;51.120;6.192;2023-11-19T10:21:50;13.10;99.90
18103;DHT22;9178;51.120;6.192;2023-11-19T10:24:31;13.10;99.90
18103;DHT22;9178;51.120;6.192;2023-11-19T10:27:07;13.00;99.90
18103;DHT22;9178;51.120;6.192;2023-11-19T10:29:36;12.90;99.90
18103;DHT22;9178;51.120;6.192;2023-11-19T10:32:05;12.90;99.90
18103;DHT22;9178;51.120;6.192;2023-11-19T10:34:32;12.80;99.90
18103;DHT22;9178;51.120;6.192;2023-11-19T10:37:00;12.70;99.90
18103;DHT22;9178;51.120;6.192;2023-11-19T10:39:51;12.70;99.90
18103;DHT22;9178;51.120;6.192;2023-11-19T10:42:19;12.70;99.90
18103;DHT22;9178;51.120;6.192;2023-11-19T10:44:46;12.70;99.90
18103;DHT22;9178;51.120;6.192;2023-11-19T10:47:15;12.80;99.90
18103;DHT22;9178;51.120;6.192;2023-11-19T10:49:48;12.80;99.90
18103;DHT22;9178;51.120;6.192;2023-11-19T10:52:18;12.90;99.90
18103;DHT22;9178;51.120;6.192;2023-11-19T10:54:50;13.00;99.90
18103;DHT22;9178;51.120;6.192;2023-11-19T10:57:20;13.10;99.90
18103;DHT22;9178;51.120;6.192;2023-11-19T10:59:49;13.30;99.90
18103;DHT22;9178;51.120;6.192;2023-11-19T11:02:23;13.50;99.90
18103;DHT22;9178;51.120;6.192;2023-11-19T11:04:52;13.70;99.90
18103;DHT22;9178;51.120;6.192;2023-11-19T11:07:21;13.80;99.90
18103;DHT22;9178;51.120;6.192;2023-11-19T11:09:52;13.80;99.90
18103;DHT22;9178;51.120;6.192;2023-11-19T11:12:22;13.70;99.90
18103;DHT22;9178;51.120;6.192;2023-11-19T11:14:51;13.60;99.90
18103;DHT22;9178;51.120;6.192;2023-11-19T11:17:24;13.50;99.90
18103;DHT22;9178;51.120;6.192;2023-11-19T11:19:57;13.50;99.90
18103;DHT22;9178;51.120;6.192;2023-11-19T11:22:25;13.60;99.90
18103;DHT22;9178;51.120;6.192;2023-11-19T11:25:13;13.70;99.90
18103;DHT22;9178;51.120;6.192;2023-11-19T11:28:03;13.80;99.90
18103;DHT22;9178;51.120;6.192;2023-11-19T11:30:46;13.90;99.90
18103;DHT22;9178;51.120;6.192;2023-11-19T11:33:44;13.80;99.90
18103;DHT22;9178;51.120;6.192;2023-11-19T11:36:22;13.70;99.90
18103;DHT22;9178;51.120;6.192;2023-11-19T11:38:55;13.60;99.90
18103;DHT22;9178;51.120;6.192;2023-11-19T11:41:26;13.60;99.90
18103;DHT22;9178;51.120;6.192;2023-11-19T11:43:54;13.70;99.90
18103;DHT22;9178;51.120;6.192;2023-11-19T11:46:53;13.70;99.90
18103;DHT22;9178;51.120;6.192;2023-11-19T11:49:28;13.70;99.90
18103;DHT22;9178;51.120;6.192;2023-11-19T11:52:01;13.80;99.90
18103;DHT22;9178;51.120;6.192;2023-11-19T11:54:29;13.80;99.90
18103;DHT22;9178;51.120;6.192;2023-11-19T11:57:02;13.90;99.90
18103;DHT22;9178;51.120;6.192;2023-11-19T11:59:46;13.90;99.90
18103;DHT22;9178;51.120;6.192;2023-11-19T12:02:17;13.80;99.90
18103;DHT22;9178;51.120;6.192;2023-11-19T12:04:49;13.80;99.90
18103;DHT22;9178;51.120;6.192;2023-11-19T12:07:24;13.80;99.90
18103;DHT22;9178;51.120;6.192;2023-11-19T12:09:53;13.70;99.90
18103;DHT22;9178;51.120;6.192;2023-11-19T12:12:38;13.70;99.90
18103;DHT22;9178;51.120;6.192;2023-11-19T12:15:07;13.50;99.90
18103;DHT22;9178;51.120;6.192;2023-11-19T12:17:42;13.30;99.90
18103;DHT22;9178;51.120;6.192;2023-11-19T12:20:12;13.20;99.90
18103;DHT22;9178;51.120;6.192;2023-11-19T12:22:40;13.10;99.90
18103;DHT22;9178;51.120;6.192;2023-11-19T12:25:08;13.10;99.90
18103;DHT22;9178;51.120;6.192;2023-11-19T12:27:36;13.10;99.90
18103;DHT22;9178;51.120;6.192;2023-11-19T12:30:04;13.20;99.90
18103;DHT22;9178;51.120;6.192;2023-11-19T12:32:38;13.10;99.90
18103;DHT22;9178;51.120;6.192;2023-11-19T12:35:07;13.10;99.90
18103;DHT22;9178;51.120;6.192;2023-11-19T12:37:43;13.00;99.90
18103;DHT22;9178;51.120;6.192;2023-11-19T12:40:17;13.00;99.90
18103;DHT22;9178;51.120;6.192;2023-11-19T12:42:47;13.00;99.90
18103;DHT22;9178;51.120;6.192;2023-11-19T12:45:14;13.00;99.90
18103;DHT22;9178;51.120;6.192;2023-11-19T12:47:46;13.00;99.90
18103;DHT22;9178;51.120;6.192;2023-11-19T12:50:15;13.00;99.90
18103;DHT22;9178;51.120;6.192;2023-11-19T12:52:55;12.90;99.90
18103;DHT22;9178;51.120;6.192;2023-11-19T12:55:26;12.90;99.90
18103;DHT22;9178;51.120;6.192;2023-11-19T12:57:53;12.90;99.90
18103;DHT22;9178;51.120;6.192;2023-11-19T13:00:22;12.90;99.90
18103;DHT22;9178;51.120;6.192;2023-11-19T13:02:50;13.00;99.90
18103;DHT22;9178;51.120;6.192;2023-11-19T13:05:26;13.00;99.90
18103;DHT22;9178;51.120;6.192;2023-11-19T13:08:05;13.00;99.90
18103;DHT22;9178;51.120;6.192;2023-11-19T13:10:32;13.00;99.90
18103;DHT22;9178;51.120;6.192;2023-11-19T13:13:01;13.00;99.90
18103;DHT22;9178;51.120;6.192;2023-11-19T13:15:28;13.00;99.90
18103;DHT22;9178;51.120;6.192;2023-11-19T13:17:55;13.00;99.90
18103;DHT22;9178;51.120;6.192;2023-11-19T13:20:22;13.00;99.90
18103;DHT22;9178;51.120;6.192;2023-11-19T13:22:56;13.00;99.90
18103;DHT22;9178;51.120;6.192;2023-11-19T13:25:27;13.00;99.90
18103;DHT22;9178;51.120;6.192;2023-11-19T13:27:54;13.00;99.90
18103;DHT22;9178;51.120;6.192;2023-11-19T13:30:22;12.90;99.90
18103;DHT22;9178;51.120;6.192;2023-11-19T13:32:49;12.90;99.90
18103;DHT22;9178;51.120;6.192;2023-11-19T13:35:17;12.90;99.90
18103;DHT22;9178;51.120;6.192;2023-11-19T13:37:45;12.90;99.90
18103;DHT22;9178;51.120;6.192;2023-11-19T13:40:12;12.90;99.90
18103;DHT22;9178;51.120;6.192;2023-11-19T13:42:42;12.80;99.90
18103;DHT22;9178;51.120;6.192;2023-11-19T13:45:10;12.70;99.90
18103;DHT22;9178;51.120;6.192;2023-11-19T13:47:41;12.60;99.90
18103;DHT22;9178;51.120;6.192;2023-11-19T13:50:10;12.50;99.90
18103;DHT22;9178;51.120;6.192;2023-11-19T13:52:37;12.50;99.90
18103;DHT22;9178;51.120;6.192;2023-11-19T13:55:06;12.40;99.90
18103;DHT22;9178;51.120;6.192;2023-11-19T13:57:34;12.30;99.90
18103;DHT22;9178;51.120;6.192;2023-11-19T14:00:04;12.30;99.90
18103;DHT22;9178;51.120;6.192;2023-11-19T14:02:32;12.30;99.90
18103;DHT22;9178;51.120;6.192;2023-11-19T14:04:59;12.30;99.90
18103;DHT22;9178;51.120;6.192;2023-11-19T14:07:26;12.30;99.90
18103;DHT22;9178;51.120;6.192;2023-11-19T14:09:53;12.30;99.90
18103;DHT22;9178;51.120;6.192;2023-11-19T14:12:21;12.30;99.90
18103;DHT22;9178;51.120;6.192;2023-11-19T14:14:50;12.30;99.90
18103;DHT22;9178;51.120;6.192;2023-11-19T14:17:19;12.40;99.90
18103;DHT22;9178;51.120;6.192;2023-11-19T14:19:48;12.50;99.90
18103;DHT22;9178;51.120;6.192;2023-11-19T14:22:15;12.60;99.90
18103;DHT22;9178;51.120;6.192;2023-11-19T14:24:42;12.70;99.90
18103;DHT22;9178;51.120;6.192;2023-11-19T14:27:10;12.70;99.90
18103;DHT22;9178;51.120;6.192;2023-11-19T14:29:37;12.70;99.90
18103;DHT22;9178;51.120;6.192;2023-11-19T14:32:05;12.70;99.90
18103;DHT22;9178;51.120;6.192;2023-11-19T14:34:36;12.60;99.90
18103;DHT22;9178;51.120;6.192;2023-11-19T14:37:03;12.60;99.90
18103;DHT22;9178;51.120;6.192;2023-11-19T14:39:30;12.50;99.90
18103;DHT22;9178;51.120;6.192;2023-11-19T14:41:57;12.40;99.90
18103;DHT22;9178;51.120;6.192;2023-11-19T14:47:30;12.10;99.90
18103;DHT22;9178;51.120;6.192;2023-11-19T14:50:01;12.00;99.90
18103;DHT22;9178;51.120;6.192;2023-11-19T14:52:28;11.90;99.90
18103;DHT22;9178;51.120;6.192;2023-11-19T14:55:08;11.90;99.90
18103;DHT22;9178;51.120;6.192;2023-11-19T14:57:42;11.80;99.90
18103;DHT22;9178;51.120;6.192;2023-11-19T15:00:14;11.70;99.90
18103;DHT22;9178;51.120;6.192;2023-11-19T15:02:51;11.70;99.90
18103;DHT22;9178;51.120;6.192;2023-11-19T15:05:23;11.70;99.90
18103;DHT22;9178;51.120;6.192;2023-11-19T15:07:57;11.60;99.90
18103;DHT22;9178;51.120;6.192;2023-11-19T15:10:27;11.50;99.90
18103;DHT22;9178;51.120;6.192;2023-11-19T15:13:03;11.50;99.90
18103;DHT22;9178;51.120;6.192;2023-11-19T15:15:33;11.50;99.90
18103;DHT22;9178;51.120;6.192;2023-11-19T15:18:01;11.50;99.90
18103;DHT22;9178;51.120;6.192;2023-11-19T15:20:29;11.50;99.90
18103;DHT22;9178;51.120;6.192;2023-11-19T15:23:02;11.40;99.90
18103;DHT22;9178;51.120;6.192;2023-11-19T15:25:29;11.50;99.90
18103;DHT22;9178;51.120;6.192;2023-11-19T15:28:01;11.50;99.90
18103;DHT22;9178;51.120;6.192;2023-11-19T15:30:31;11.50;99.90
18103;DHT22;9178;51.120;6.192;2023-11-19T15:33:05;11.50;99.90
18103;DHT22;9178;51.120;6.192;2023-11-19T15:35:52;11.50;99.90
18103;DHT22;9178;51.120;6.192;2023-11-19T15:38:26;11.40;99.90
18103;DHT22;9178;51.120;6.192;2023-11-19T15:40:58;11.40;99.90
18103;DHT22;9178;51.120;6.192;2023-11-19T15:43:29;11.40;99.90
18103;DHT22;9178;51.120;6.192;2023-11-19T15:46:02;11.40;99.90
18103;DHT22;9178;51.120;6.192;2023-11-19T15:48:34;11.40;99.90
18103;DHT22;9178;51.120;6.192;2023-11-19T15:51:05;11.40;99.90
18103;DHT22;9178;51.120;6.192;2023-11-19T15:53:35;11.30;99.90
18103;DHT22;9178;51.120;6.192;2023-11-19T15:56:20;11.30;99.90
18103;DHT22;9178;51.120;6.192;2023-11-19T15:58:48;11.30;99.90
18103;DHT22;9178;51.120;6.192;2023-11-19T16:01:17;11.30;99.90
18103;DHT22;9178;51.120;6.192;2023-11-19T16:03:49;11.20;99.90
18103;DHT22;9178;51.120;6.192;2023-11-19T16:06:25;11.20;99.90